createdAt,value
2023-01-13T00:01:18.828Z,9.43
2023-01-13T00:03:47.419Z,9.44
2023-01-13T00:06:17.558Z,9.40
2023-01-13T00:08:46.343Z,9.38
2023-01-13T00:11:14.836Z,9.40
2023-01-13T00:13:44.831Z,9.38
2023-01-13T00:16:16.438Z,9.36
2023-01-13T00:18:46.159Z,9.33
2023-01-13T00:21:16.627Z,9.37
2023-01-13T00:23:45.963Z,9.39
2023-01-13T00:26:18.640Z,9.35
2023-01-13T00:28:48.607Z,9.36
2023-01-13T00:31:20.505Z,9.36
2023-01-13T00:33:51.374Z,9.38
2023-01-13T00:36:22.177Z,9.38
2023-01-13T00:38:50.869Z,9.42
2023-01-13T00:41:20.890Z,9.44
2023-01-13T00:43:50.552Z,9.46
2023-01-13T00:46:21.016Z,9.45
2023-01-13T00:48:50.140Z,9.47
2023-01-13T00:51:20.906Z,9.48
2023-01-13T00:53:51.936Z,9.45
2023-01-13T00:56:38.100Z,9.47
2023-01-13T00:59:09.573Z,9.50
2023-01-13T01:01:38.556Z,9.49
2023-01-13T01:04:07.781Z,9.45
2023-01-13T01:06:36.254Z,9.53
2023-01-13T01:09:05.103Z,9.50
2023-01-13T01:11:35.068Z,9.53
2023-01-13T01:14:05.339Z,9.58
2023-01-13T01:16:36.162Z,9.59
2023-01-13T01:19:05.431Z,9.60
2023-01-13T01:21:35.086Z,9.58
2023-01-13T01:24:05.411Z,9.61
2023-01-13T01:26:34.106Z,9.62
2023-01-13T01:29:03.495Z,9.58
2023-01-13T01:31:33.893Z,9.56
2023-01-13T01:34:04.043Z,9.56
2023-01-13T01:36:33.770Z,9.57
2023-01-13T01:39:02.382Z,9.51
2023-01-13T01:41:33.102Z,9.46
2023-01-13T01:44:03.218Z,9.45
2023-01-13T01:46:34.211Z,9.49
2023-01-13T01:49:15.408Z,9.51
2023-01-13T01:51:48.208Z,9.54
2023-01-13T01:54:21.582Z,9.52
2023-01-13T01:56:50.685Z,9.57
2023-01-13T01:59:20.073Z,9.57
2023-01-13T02:01:50.054Z,9.57
2023-01-13T02:04:29.635Z,9.56
2023-01-13T02:06:58.870Z,9.53
2023-01-13T02:09:28.540Z,9.52
2023-01-13T02:12:14.112Z,9.55
2023-01-13T02:14:43.655Z,9.52
2023-01-13T02:17:27.592Z,9.56
2023-01-13T02:20:46.597Z,9.57
2023-01-13T02:24:13.062Z,9.65
2023-01-13T02:27:22.530Z,9.74
2023-01-13T02:30:26.772Z,9.75
2023-01-13T02:33:10.656Z,9.82
2023-01-13T02:35:45.451Z,9.83
2023-01-13T02:38:17.468Z,9.90
2023-01-13T02:40:51.596Z,9.92
2023-01-13T02:43:42.147Z,9.93
2023-01-13T02:46:16.930Z,9.89
2023-01-13T02:48:47.411Z,9.82
2023-01-13T02:51:19.299Z,9.77
2023-01-13T02:53:52.548Z,9.74
2023-01-13T02:56:24.341Z,9.72
2023-01-13T02:58:54.970Z,9.78
2023-01-13T03:01:26.645Z,9.64
2023-01-13T03:03:55.111Z,9.67
2023-01-13T03:06:42.777Z,9.66
2023-01-13T03:09:14.789Z,9.60
2023-01-13T03:11:52.273Z,9.64
2023-01-13T03:14:32.230Z,9.66
2023-01-13T03:17:23.368Z,9.68
2023-01-13T03:20:01.164Z,9.69
2023-01-13T03:22:35.166Z,9.71
2023-01-13T03:25:12.226Z,9.72
2023-01-13T03:27:46.487Z,9.65
2023-01-13T03:30:20.310Z,9.64
2023-01-13T03:32:53.579Z,9.66
2023-01-13T03:35:25.989Z,9.65
2023-01-13T03:38:02.150Z,9.65
2023-01-13T03:40:34.859Z,9.64
2023-01-13T03:43:24.920Z,9.61
2023-01-13T03:45:59.041Z,9.59
2023-01-13T03:48:31.250Z,9.48
2023-01-13T03:51:06.468Z,9.50
2023-01-13T03:53:40.214Z,9.51
2023-01-13T03:56:13.643Z,9.50
2023-01-13T03:58:45.650Z,9.50
2023-01-13T04:01:18.509Z,9.52
2023-01-13T04:03:54.393Z,9.52
2023-01-13T04:06:30.554Z,9.47
2023-01-13T04:09:08.022Z,9.50
2023-01-13T04:11:41.372Z,9.43
2023-01-13T04:14:12.096Z,9.41
2023-01-13T04:16:40.841Z,9.47
2023-01-13T04:19:11.309Z,9.53
2023-01-13T04:21:39.705Z,9.56
2023-01-13T04:24:09.932Z,9.51
2023-01-13T04:26:38.359Z,9.57
2023-01-13T04:29:06.774Z,9.55
2023-01-13T04:31:35.463Z,9.58
2023-01-13T04:34:03.966Z,9.63
2023-01-13T04:36:34.087Z,9.66
2023-01-13T04:39:02.817Z,9.68
2023-01-13T04:41:52.177Z,9.67
2023-01-13T04:44:20.743Z,9.66
2023-01-13T04:46:49.203Z,9.67
2023-01-13T04:49:17.878Z,9.65
2023-01-13T04:51:47.757Z,9.65
2023-01-13T04:54:16.653Z,9.62
2023-01-13T04:56:45.103Z,9.64
2023-01-13T04:59:15.183Z,9.62
2023-01-13T05:01:43.686Z,9.65
2023-01-13T05:04:12.339Z,9.64
2023-01-13T05:06:40.822Z,9.64
2023-01-13T05:09:11.867Z,9.64
2023-01-13T05:11:57.361Z,9.64
2023-01-13T05:14:43.218Z,9.63
2023-01-13T05:17:15.607Z,9.67
2023-01-13T05:19:44.098Z,9.64
2023-01-13T05:22:29.908Z,9.65
2023-01-13T05:25:16.896Z,9.60
2023-01-13T05:27:45.441Z,9.64
2023-01-13T05:30:14.323Z,9.62
2023-01-13T05:32:43.083Z,9.64
2023-01-13T05:35:11.756Z,9.73
2023-01-13T05:37:40.241Z,9.73
2023-01-13T05:40:29.468Z,9.75
2023-01-13T05:43:20.447Z,9.77
2023-01-13T05:45:50.697Z,9.73
2023-01-13T05:48:21.119Z,9.77
2023-01-13T05:50:50.392Z,9.81
2023-01-13T05:53:19.579Z,9.81
2023-01-13T05:55:50.411Z,9.83
2023-01-13T05:58:20.315Z,9.80
2023-01-13T06:00:49.951Z,9.83
2023-01-13T06:03:20.276Z,9.76
2023-01-13T06:05:58.605Z,9.87
2023-01-13T06:08:27.512Z,9.78
2023-01-13T06:10:57.692Z,9.80
2023-01-13T06:13:26.663Z,9.82
2023-01-13T06:15:58.330Z,9.82
2023-01-13T06:18:27.097Z,9.80
2023-01-13T06:20:55.746Z,9.76
2023-01-13T06:23:24.624Z,9.74
2023-01-13T06:26:01.090Z,9.70
2023-01-13T06:28:29.679Z,9.72
2023-01-13T06:31:01.561Z,9.73
2023-01-13T06:33:34.545Z,9.75
2023-01-13T06:36:07.965Z,9.76
2023-01-13T06:38:40.279Z,9.77
2023-01-13T06:41:10.779Z,9.73
2023-01-13T06:43:39.788Z,9.69
2023-01-13T06:46:08.281Z,9.70
2023-01-13T06:48:36.838Z,9.65
2023-01-13T06:51:06.010Z,9.55
2023-01-13T06:53:34.477Z,9.64
2023-01-13T06:56:02.999Z,9.63
2023-01-13T06:58:33.149Z,9.67
2023-01-13T07:01:02.362Z,9.67
2023-01-13T07:03:31.182Z,9.68
2023-01-13T07:06:00.649Z,9.64
2023-01-13T07:08:29.499Z,9.67
2023-01-13T07:10:58.084Z,9.68
2023-01-13T07:13:43.976Z,9.74
2023-01-13T07:16:14.239Z,9.76
2023-01-13T07:18:42.796Z,9.75
2023-01-13T07:21:13.468Z,9.79
2023-01-13T07:23:43.132Z,9.78
2023-01-13T07:26:12.789Z,9.79
2023-01-13T07:28:41.737Z,9.75
2023-01-13T07:31:17.875Z,9.78
2023-01-13T07:33:46.705Z,9.79
2023-01-13T07:36:16.568Z,9.77
2023-01-13T07:38:45.723Z,9.79
2023-01-13T07:41:32.392Z,9.76
2023-01-13T07:44:05.173Z,9.80
2023-01-13T07:46:35.548Z,9.80
2023-01-13T07:49:04.033Z,9.79
2023-01-13T07:51:32.835Z,9.77
2023-01-13T07:54:01.317Z,9.82
2023-01-13T07:56:29.891Z,9.81
2023-01-13T07:59:01.079Z,9.76
2023-01-13T08:01:29.931Z,9.78
2023-01-13T08:04:00.391Z,9.75
2023-01-13T08:06:29.180Z,9.82
2023-01-13T08:08:57.748Z,9.81
2023-01-13T08:11:26.347Z,9.87
2023-01-13T08:13:56.717Z,9.87
2023-01-13T08:16:25.674Z,9.89
2023-01-13T08:18:54.275Z,9.92
2023-01-13T08:21:24.210Z,9.97
2023-01-13T08:23:52.767Z,9.95
2023-01-13T08:26:21.250Z,9.88
2023-01-13T08:28:49.728Z,9.97
2023-01-13T08:31:20.294Z,10.01
2023-01-13T08:33:49.590Z,10.04
2023-01-13T08:36:18.733Z,10.02
2023-01-13T08:38:49.110Z,10.05
2023-01-13T08:41:39.074Z,10.07
2023-01-13T08:44:09.447Z,10.08
2023-01-13T08:46:38.225Z,10.07
2023-01-13T08:49:06.787Z,10.10
2023-01-13T08:51:35.544Z,10.11
2023-01-13T08:54:05.775Z,10.12
2023-01-13T08:56:35.684Z,10.14
2023-01-13T08:59:04.415Z,10.18
2023-01-13T09:01:33.209Z,10.23
2023-01-13T09:04:02.073Z,10.25
2023-01-13T09:06:31.067Z,10.22
2023-01-13T09:09:00.019Z,10.32
2023-01-13T09:11:50.843Z,10.34
2023-01-13T09:14:22.667Z,10.33
2023-01-13T09:16:51.504Z,10.29
2023-01-13T09:19:20.342Z,10.31
2023-01-13T09:21:48.886Z,10.32
2023-01-13T09:24:17.636Z,10.32
2023-01-13T09:26:47.539Z,10.32
2023-01-13T09:29:16.767Z,10.34
2023-01-13T09:31:45.982Z,10.34
2023-01-13T09:34:34.184Z,10.36
2023-01-13T09:37:03.619Z,10.33
2023-01-13T09:39:33.430Z,10.31
2023-01-13T09:42:26.691Z,10.34
2023-01-13T09:45:00.599Z,10.33
2023-01-13T09:47:34.179Z,10.29
2023-01-13T09:50:16.937Z,10.31
2023-01-13T09:52:45.590Z,10.28
2023-01-13T09:55:17.751Z,10.21
2023-01-13T09:57:47.627Z,10.15
2023-01-13T10:00:23.581Z,10.16
2023-01-13T10:03:10.606Z,10.19
2023-01-13T10:05:41.093Z,10.13
2023-01-13T10:08:13.952Z,10.18
2023-01-13T10:10:46.639Z,10.16
2023-01-13T10:13:22.403Z,10.17
2023-01-13T10:16:02.930Z,10.12
2023-01-13T10:18:41.895Z,10.06
2023-01-13T10:21:25.195Z,10.18
2023-01-13T10:24:03.064Z,10.20
2023-01-13T10:26:58.516Z,10.24
2023-01-13T10:29:31.053Z,10.28
2023-01-13T10:32:01.392Z,10.33
2023-01-13T10:34:30.695Z,10.38
2023-01-13T10:37:06.411Z,10.37
2023-01-13T10:39:42.358Z,10.46
2023-01-13T10:42:16.007Z,10.51
2023-01-13T10:44:55.176Z,10.55
2023-01-13T10:47:29.176Z,10.55
2023-01-13T10:50:03.843Z,10.52
2023-01-13T10:52:36.286Z,10.60
2023-01-13T10:55:06.807Z,10.60
2023-01-13T10:57:38.032Z,10.64
2023-01-13T11:00:30.796Z,10.69
2023-01-13T11:03:20.710Z,10.78
2023-01-13T11:05:57.094Z,10.82
2023-01-13T11:08:27.846Z,10.85
2023-01-13T11:10:58.328Z,10.91
2023-01-13T11:13:34.081Z,10.91
2023-01-13T11:16:12.176Z,11.05
2023-01-13T11:19:02.319Z,11.07
2023-01-13T11:21:43.213Z,11.05
2023-01-13T11:24:17.234Z,11.02
2023-01-13T11:26:49.302Z,11.11
2023-01-13T11:29:25.517Z,11.14
2023-01-13T11:32:08.906Z,11.20
2023-01-13T11:34:40.750Z,11.22
2023-01-13T11:37:17.551Z,11.25
2023-01-13T11:39:54.128Z,11.30
2023-01-13T11:42:28.369Z,11.36
2023-01-13T11:45:08.916Z,11.38
2023-01-13T11:47:39.617Z,11.38
2023-01-13T11:50:17.720Z,11.39
2023-01-13T11:53:03.805Z,11.39
2023-01-13T11:55:40.124Z,11.41
2023-01-13T11:58:38.788Z,11.44
2023-01-13T12:01:28.963Z,11.42
2023-01-13T12:04:12.172Z,11.39
2023-01-13T12:06:43.782Z,11.36
2023-01-13T12:09:34.882Z,11.35
2023-01-13T12:12:23.178Z,11.36
2023-01-13T12:15:09.340Z,11.36
2023-01-13T12:17:56.208Z,11.38
2023-01-13T12:20:40.722Z,11.32
2023-01-13T12:23:19.219Z,11.37
2023-01-13T12:25:54.990Z,11.29
2023-01-13T12:28:27.970Z,11.28
2023-01-13T12:31:00.777Z,11.26
2023-01-13T12:33:44.475Z,11.27
2023-01-13T12:36:19.529Z,11.32
2023-01-13T12:38:51.243Z,11.32
2023-01-13T12:41:34.746Z,11.35
2023-01-13T12:44:18.279Z,11.29
2023-01-13T12:46:53.523Z,11.40
2023-01-13T12:49:24.796Z,11.39
2023-01-13T12:52:17.786Z,11.41
2023-01-13T12:55:24.564Z,11.54
2023-01-13T12:57:58.612Z,11.57
2023-01-13T13:00:33.998Z,11.61
2023-01-13T13:03:29.675Z,11.67
2023-01-13T13:06:11.631Z,11.69
2023-01-13T13:09:03.879Z,11.72
2023-01-13T13:12:07.620Z,11.69
2023-01-13T13:15:04.062Z,11.73
2023-01-13T13:18:01.589Z,11.71
2023-01-13T13:21:10.390Z,11.74
2023-01-13T13:23:48.415Z,11.71
2023-01-13T13:26:37.568Z,11.71
2023-01-13T13:29:32.962Z,11.74
2023-01-13T13:32:28.917Z,11.71
2023-01-13T13:35:09.353Z,11.68
2023-01-13T13:38:09.474Z,11.65
2023-01-13T13:40:59.775Z,11.60
2023-01-13T13:43:49.111Z,11.57
2023-01-13T13:46:47.251Z,11.62
2023-01-13T13:49:17.326Z,11.63
2023-01-13T13:51:54.155Z,11.62
2023-01-13T13:54:24.318Z,11.52
2023-01-13T13:56:53.842Z,11.59
2023-01-13T13:59:27.002Z,11.60
2023-01-13T14:02:02.008Z,11.61
2023-01-13T14:04:32.871Z,11.54
2023-01-13T14:07:04.689Z,11.57
2023-01-13T14:09:44.019Z,11.52
2023-01-13T14:12:20.102Z,11.53
2023-01-13T14:14:51.603Z,11.51
2023-01-13T14:17:23.295Z,11.52
2023-01-13T14:20:05.193Z,11.52
2023-01-13T14:22:36.655Z,11.47
2023-01-13T14:25:39.850Z,11.46
2023-01-13T14:28:24.916Z,11.44
2023-01-13T14:30:56.082Z,11.37
2023-01-13T14:33:34.294Z,11.43
2023-01-13T14:36:15.477Z,11.43
2023-01-13T14:38:45.223Z,11.42
2023-01-13T14:41:23.948Z,11.39
2023-01-13T14:43:55.537Z,11.33
2023-01-13T14:46:25.910Z,11.23
2023-01-13T14:49:02.512Z,11.29
2023-01-13T14:51:31.926Z,11.18
2023-01-13T14:54:00.450Z,11.12
2023-01-13T14:56:43.877Z,11.08
2023-01-13T14:59:33.989Z,10.93
2023-01-13T15:02:24.747Z,10.86
2023-01-13T15:04:54.623Z,10.68
2023-01-13T15:07:28.317Z,10.57
2023-01-13T15:09:59.284Z,10.42
2023-01-13T15:12:35.987Z,10.31
2023-01-13T15:15:08.005Z,10.31
2023-01-13T15:17:38.907Z,10.21
2023-01-13T15:20:15.739Z,10.18
2023-01-13T15:22:44.210Z,10.08
2023-01-13T15:25:14.168Z,10.06
2023-01-13T15:27:44.598Z,10.01
2023-01-13T15:30:18.154Z,9.92
2023-01-13T15:32:48.697Z,9.98
2023-01-13T15:35:17.696Z,9.98
2023-01-13T15:37:48.142Z,10.11
2023-01-13T15:40:18.683Z,10.12
2023-01-13T15:43:04.853Z,10.15
2023-01-13T15:45:52.566Z,10.17
2023-01-13T15:48:24.925Z,10.20
2023-01-13T15:50:53.347Z,10.22
2023-01-13T15:53:22.304Z,10.20
2023-01-13T15:55:53.775Z,10.23
2023-01-13T15:58:28.081Z,10.15
2023-01-13T16:00:57.074Z,10.20
2023-01-13T16:03:27.181Z,10.18
2023-01-13T16:05:55.842Z,10.15
2023-01-13T16:08:25.093Z,10.13
2023-01-13T16:10:53.692Z,10.09
2023-01-13T16:13:22.229Z,10.11
2023-01-13T16:15:52.102Z,10.03
2023-01-13T16:18:24.530Z,10.11
2023-01-13T16:20:55.665Z,10.03
2023-01-13T16:23:24.867Z,10.09
2023-01-13T16:25:53.875Z,10.10
2023-01-13T16:28:24.618Z,10.11
2023-01-13T16:30:53.613Z,10.11
2023-01-13T16:33:22.282Z,10.09
2023-01-13T16:36:09.793Z,10.09
2023-01-13T16:38:41.170Z,9.96
2023-01-13T16:41:10.468Z,9.97
2023-01-13T16:43:39.777Z,9.96
2023-01-13T16:46:19.085Z,9.95
2023-01-13T16:48:48.254Z,9.89
2023-01-13T16:51:17.427Z,9.91
2023-01-13T16:53:47.401Z,9.90
2023-01-13T16:56:32.132Z,9.90
2023-01-13T16:59:05.783Z,9.86
2023-01-13T17:01:37.500Z,9.87
2023-01-13T17:04:06.938Z,9.79
2023-01-13T17:06:40.969Z,9.83
2023-01-13T17:09:17.573Z,9.79
2023-01-13T17:11:46.351Z,9.79
2023-01-13T17:14:18.864Z,9.82
2023-01-13T17:16:48.668Z,9.79
2023-01-13T17:19:17.845Z,9.83
2023-01-13T17:21:47.518Z,9.80
2023-01-13T17:24:18.320Z,9.80
2023-01-13T17:26:49.569Z,9.79
2023-01-13T17:29:22.210Z,9.78
2023-01-13T17:31:51.451Z,9.73
2023-01-13T17:34:21.382Z,9.81
2023-01-13T17:36:50.285Z,9.77
2023-01-13T17:39:22.132Z,9.70
2023-01-13T17:41:51.742Z,9.79
2023-01-13T17:44:22.992Z,9.81
2023-01-13T17:46:52.474Z,9.71
2023-01-13T17:49:22.418Z,9.70
2023-01-13T17:51:53.603Z,9.73
2023-01-13T17:54:24.150Z,9.62
2023-01-13T17:56:55.565Z,9.67
2023-01-13T17:59:24.639Z,9.71
2023-01-13T18:01:54.548Z,9.78
2023-01-13T18:04:27.568Z,9.68
2023-01-13T18:06:58.282Z,9.66
2023-01-13T18:09:28.333Z,9.56
2023-01-13T18:11:57.120Z,9.66
2023-01-13T18:14:26.213Z,9.60
2023-01-13T18:16:56.117Z,9.64
2023-01-13T18:19:41.694Z,9.65
2023-01-13T18:22:31.571Z,9.65
2023-01-13T18:25:19.598Z,9.61
2023-01-13T18:27:48.912Z,9.57
2023-01-13T18:30:17.836Z,9.48
2023-01-13T18:32:46.387Z,9.50
2023-01-13T18:35:16.038Z,9.42
2023-01-13T18:37:44.606Z,9.32
2023-01-13T18:40:15.182Z,9.37
2023-01-13T18:42:52.168Z,9.32
2023-01-13T18:45:25.626Z,9.30
2023-01-13T18:47:56.175Z,9.28
2023-01-13T18:50:25.255Z,9.24
2023-01-13T18:52:53.937Z,9.14
2023-01-13T18:55:23.895Z,9.18
2023-01-13T18:57:53.662Z,9.13
2023-01-13T19:00:23.532Z,9.11
2023-01-13T19:05:35.990Z,9.08
2023-01-13T19:08:05.412Z,9.02
2023-01-13T19:10:36.677Z,9.02
2023-01-13T19:13:05.873Z,9.01
2023-01-13T19:15:37.604Z,8.98
2023-01-13T19:18:06.531Z,9.05
2023-01-13T19:20:35.123Z,9.01
2023-01-13T19:23:03.608Z,8.97
2023-01-13T19:25:32.109Z,8.92
2023-01-13T19:28:02.027Z,8.89
2023-01-13T19:30:30.414Z,8.86
2023-01-13T19:32:58.899Z,8.80
2023-01-13T19:35:27.481Z,8.76
2023-01-13T19:37:56.580Z,8.79
2023-01-13T19:40:27.416Z,9.01
2023-01-13T19:43:13.101Z,8.95
2023-01-13T19:45:43.335Z,8.78
2023-01-13T19:48:12.113Z,8.70
2023-01-13T19:50:41.580Z,8.81
2023-01-13T19:53:17.916Z,8.74
2023-01-13T19:55:49.592Z,8.64
2023-01-13T19:58:19.603Z,8.63
2023-01-13T20:00:49.742Z,8.58
2023-01-13T20:03:20.849Z,8.45
2023-01-13T20:05:51.923Z,8.49
2023-01-13T20:08:21.894Z,8.36
2023-01-13T20:11:11.259Z,8.33
2023-01-13T20:13:39.840Z,8.33
2023-01-13T20:16:10.945Z,8.28
2023-01-13T20:18:40.399Z,8.25
2023-01-13T20:21:09.630Z,8.23
2023-01-13T20:23:38.421Z,8.14
2023-01-13T20:26:09.457Z,8.17
2023-01-13T20:28:39.735Z,8.16
2023-01-13T20:31:11.183Z,8.14
2023-01-13T20:33:39.933Z,8.11
2023-01-13T20:36:09.775Z,8.11
2023-01-13T20:38:39.497Z,8.01
2023-01-13T20:41:22.788Z,8.06
2023-01-13T20:43:54.814Z,8.05
2023-01-13T20:46:24.898Z,8.02
2023-01-13T20:48:53.652Z,7.94
2023-01-13T20:51:22.265Z,7.98
2023-01-13T20:53:50.801Z,8.11
2023-01-13T20:56:19.443Z,8.07
2023-01-13T20:58:48.024Z,8.08
2023-01-13T21:01:16.816Z,7.98
2023-01-13T21:03:47.235Z,7.98
2023-01-13T21:06:20.466Z,7.90
2023-01-13T21:08:49.136Z,7.94
2023-01-13T21:11:38.364Z,7.98
2023-01-13T21:14:23.890Z,7.97
2023-01-13T21:16:52.504Z,7.87
2023-01-13T21:19:21.612Z,8.03
2023-01-13T21:21:50.258Z,7.95
2023-01-13T21:24:18.834Z,7.94
2023-01-13T21:26:47.614Z,7.85
2023-01-13T21:29:16.130Z,7.95
2023-01-13T21:31:44.624Z,7.95
2023-01-13T21:34:13.174Z,7.94
2023-01-13T21:36:46.391Z,7.91
2023-01-13T21:39:16.305Z,7.88
2023-01-13T21:42:02.095Z,7.78
2023-01-13T21:44:47.866Z,7.73
2023-01-13T21:47:34.821Z,7.79
2023-01-13T21:50:04.434Z,7.77
2023-01-13T21:52:34.508Z,7.68
2023-01-13T21:55:20.340Z,7.67
2023-01-13T21:57:49.464Z,7.63
2023-01-13T22:00:22.467Z,7.63
2023-01-13T22:02:51.599Z,7.60
2023-01-13T22:05:22.333Z,7.54
2023-01-13T22:07:53.091Z,7.62
2023-01-13T22:10:23.286Z,7.58
2023-01-13T22:12:54.633Z,7.55
2023-01-13T22:15:27.129Z,7.46
2023-01-13T22:17:56.288Z,7.49
2023-01-13T22:20:25.073Z,7.47
2023-01-13T22:22:54.914Z,7.40
2023-01-13T22:25:23.926Z,7.30
2023-01-13T22:27:56.161Z,7.35
2023-01-13T22:30:25.403Z,7.31
2023-01-13T22:32:53.805Z,7.30
2023-01-13T22:35:22.224Z,7.24
2023-01-13T22:37:50.949Z,7.21
2023-01-13T22:40:20.912Z,7.15
2023-01-13T22:42:49.324Z,7.18
2023-01-13T22:45:17.911Z,7.18
2023-01-13T22:47:46.415Z,7.17
2023-01-13T22:50:16.879Z,7.15
2023-01-13T22:52:45.274Z,7.14
2023-01-13T22:55:13.747Z,7.15
2023-01-13T22:57:48.082Z,7.05
2023-01-13T23:00:19.677Z,7.12
2023-01-13T23:02:48.691Z,7.12
2023-01-13T23:05:17.887Z,7.11
2023-01-13T23:07:46.907Z,7.11
2023-01-13T23:10:15.643Z,7.14
2023-01-13T23:12:45.534Z,7.16
2023-01-13T23:15:13.970Z,7.20
2023-01-13T23:17:42.478Z,7.37
2023-01-13T23:20:12.548Z,7.39
2023-01-13T23:22:41.105Z,7.29
2023-01-13T23:25:10.741Z,7.22
2023-01-13T23:27:39.331Z,7.20
2023-01-13T23:30:12.875Z,7.24
2023-01-13T23:32:44.279Z,7.23
2023-01-13T23:35:12.956Z,7.20
2023-01-13T23:37:42.037Z,7.12
2023-01-13T23:40:12.451Z,7.10
2023-01-13T23:42:41.794Z,7.12
2023-01-13T23:45:13.612Z,7.08
2023-01-13T23:47:42.754Z,7.02
2023-01-13T23:50:13.060Z,6.99
2023-01-13T23:52:41.794Z,6.99
2023-01-13T23:55:11.487Z,6.92
2023-01-13T23:57:41.007Z,6.94
